sensor_id;sensor_type;location;lat;lon;timestamp;pressure;altitude;pressure_sealevel;temperature;humidity
72359;BME280;60317;48.880;-0.862;2023-05-23T00:00:25;100991.41;;;20.66;49.83
72359;BME280;60317;48.880;-0.862;2023-05-23T00:02:53;100991.53;;;20.65;49.74
72359;BME280;60317;48.880;-0.862;2023-05-23T00:05:20;100993.00;;;20.69;49.70
72359;BME280;60317;48.880;-0.862;2023-05-23T00:07:46;100990.06;;;20.72;49.69
72359;BME280;60317;48.880;-0.862;2023-05-23T00:10:13;100995.44;;;20.72;49.74
72359;BME280;60317;48.880;-0.862;2023-05-23T00:12:39;100998.84;;;20.74;49.68
72359;BME280;60317;48.880;-0.862;2023-05-23T00:15:07;100999.59;;;20.76;49.67
72359;BME280;60317;48.880;-0.862;2023-05-23T00:17:33;100998.38;;;20.69;49.78
72359;BME280;60317;48.880;-0.862;2023-05-23T00:20:02;101001.53;;;20.63;49.88
72359;BME280;60317;48.880;-0.862;2023-05-23T00:22:28;100998.50;;;20.67;49.86
72359;BME280;60317;48.880;-0.862;2023-05-23T00:24:55;100998.38;;;20.69;49.88
72359;BME280;60317;48.880;-0.862;2023-05-23T00:27:21;101006.03;;;20.73;49.67
72359;BME280;60317;48.880;-0.862;2023-05-23T00:29:47;100998.00;;;20.73;49.66
72359;BME280;60317;48.880;-0.862;2023-05-23T00:32:14;100998.72;;;20.76;49.75
72359;BME280;60317;48.880;-0.862;2023-05-23T00:34:41;101001.28;;;20.66;49.94
72359;BME280;60317;48.880;-0.862;2023-05-23T00:37:08;100999.59;;;20.65;50.01
72359;BME280;60317;48.880;-0.862;2023-05-23T00:39:35;100993.97;;;20.68;49.95
72359;BME280;60317;48.880;-0.862;2023-05-23T00:42:03;100999.22;;;20.69;49.94
72359;BME280;60317;48.880;-0.862;2023-05-23T00:44:30;100996.44;;;20.71;49.71
72359;BME280;60317;48.880;-0.862;2023-05-23T00:46:57;101000.56;;;20.75;49.44
72359;BME280;60317;48.880;-0.862;2023-05-23T00:49:24;100994.59;;;20.71;49.73
72359;BME280;60317;48.880;-0.862;2023-05-23T00:51:51;100989.94;;;20.62;50.07
72359;BME280;60317;48.880;-0.862;2023-05-23T00:54:23;100991.78;;;20.62;49.96
72359;BME280;60317;48.880;-0.862;2023-05-23T00:56:50;100985.19;;;20.66;49.90
72359;BME280;60317;48.880;-0.862;2023-05-23T00:59:16;100986.78;;;20.68;49.92
72359;BME280;60317;48.880;-0.862;2023-05-23T01:01:43;100984.69;;;20.72;49.95
72359;BME280;60317;48.880;-0.862;2023-05-23T01:04:10;100986.41;;;20.73;49.95
72359;BME280;60317;48.880;-0.862;2023-05-23T01:06:36;100976.03;;;20.68;49.86
72359;BME280;60317;48.880;-0.862;2023-05-23T01:09:03;100967.00;;;20.58;50.19
72359;BME280;60317;48.880;-0.862;2023-05-23T01:11:35;100970.16;;;20.63;50.12
72359;BME280;60317;48.880;-0.862;2023-05-23T01:14:09;100971.75;;;20.66;49.94
72359;BME280;60317;48.880;-0.862;2023-05-23T01:16:43;100973.34;;;20.68;49.76
72359;BME280;60317;48.880;-0.862;2023-05-23T01:19:26;100965.63;;;20.64;49.86
72359;BME280;60317;48.880;-0.862;2023-05-23T01:22:05;100961.50;;;20.71;49.74
72359;BME280;60317;48.880;-0.862;2023-05-23T01:24:43;100959.53;;;20.62;50.00
72359;BME280;60317;48.880;-0.862;2023-05-23T01:27:23;100962.00;;;20.54;49.85
72359;BME280;60317;48.880;-0.862;2023-05-23T01:29:59;100966.13;;;20.58;49.56
72359;BME280;60317;48.880;-0.862;2023-05-23T01:32:27;100967.59;;;20.62;49.61
72359;BME280;60317;48.880;-0.862;2023-05-23T01:34:55;100967.59;;;20.62;49.48
72359;BME280;60317;48.880;-0.862;2023-05-23T01:37:22;100971.38;;;20.59;49.44
72359;BME280;60317;48.880;-0.862;2023-05-23T01:39:48;100968.59;;;20.61;49.28
72359;BME280;60317;48.880;-0.862;2023-05-23T01:42:15;100968.47;;;20.51;49.56
72359;BME280;60317;48.880;-0.862;2023-05-23T01:44:43;100968.66;;;20.48;49.57
72359;BME280;60317;48.880;-0.862;2023-05-23T01:47:12;100972.84;;;20.52;49.56
72359;BME280;60317;48.880;-0.862;2023-05-23T01:49:40;100976.03;;;20.57;49.28
72359;BME280;60317;48.880;-0.862;2023-05-23T01:52:08;100973.22;;;20.59;49.11
72359;BME280;60317;48.880;-0.862;2023-05-23T01:54:36;100973.81;;;20.62;49.08
72359;BME280;60317;48.880;-0.862;2023-05-23T01:57:03;100969.44;;;20.61;48.96
72359;BME280;60317;48.880;-0.862;2023-05-23T01:59:30;100980.25;;;20.48;49.16
72359;BME280;60317;48.880;-0.862;2023-05-23T02:01:57;100978.03;;;20.42;49.05
72359;BME280;60317;48.880;-0.862;2023-05-23T02:04:26;100988.31;;;20.48;48.91
72359;BME280;60317;48.880;-0.862;2023-05-23T02:06:53;100979.28;;;20.49;49.02
72359;BME280;60317;48.880;-0.862;2023-05-23T02:09:19;100976.59;;;20.49;48.88
72359;BME280;60317;48.880;-0.862;2023-05-23T02:11:46;100979.28;;;20.49;48.64
72359;BME280;60317;48.880;-0.862;2023-05-23T02:14:12;100986.28;;;20.52;48.42
72359;BME280;60317;48.880;-0.862;2023-05-23T02:16:39;100983.94;;;20.47;48.34
72359;BME280;60317;48.880;-0.862;2023-05-23T02:19:05;100986.38;;;20.39;48.54
72359;BME280;60317;48.880;-0.862;2023-05-23T02:21:33;100991.47;;;20.42;48.50
72359;BME280;60317;48.880;-0.862;2023-05-23T02:24:01;100995.66;;;20.46;48.17
72359;BME280;60317;48.880;-0.862;2023-05-23T02:26:27;100995.75;;;20.45;48.00
72359;BME280;60317;48.880;-0.862;2023-05-23T02:28:54;100999.91;;;20.49;48.10
72359;BME280;60317;48.880;-0.862;2023-05-23T02:31:21;101000.41;;;20.43;48.03
72359;BME280;60317;48.880;-0.862;2023-05-23T02:33:48;101003.19;;;20.41;47.99
72359;BME280;60317;48.880;-0.862;2023-05-23T02:36:14;101000.97;;;20.35;48.13
72359;BME280;60317;48.880;-0.862;2023-05-23T02:38:42;101008.41;;;20.32;47.95
72359;BME280;60317;48.880;-0.862;2023-05-23T02:41:09;101008.09;;;20.36;47.88
72359;BME280;60317;48.880;-0.862;2023-05-23T02:43:37;101008.69;;;20.40;47.72
72359;BME280;60317;48.880;-0.862;2023-05-23T02:46:03;101014.16;;;20.38;47.60
72359;BME280;60317;48.880;-0.862;2023-05-23T02:48:30;101006.13;;;20.38;47.29
72359;BME280;60317;48.880;-0.862;2023-05-23T02:50:56;101000.41;;;20.43;47.60
72359;BME280;60317;48.880;-0.862;2023-05-23T02:53:23;100993.06;;;20.45;47.42
72359;BME280;60317;48.880;-0.862;2023-05-23T02:55:51;101006.25;;;20.37;47.64
72359;BME280;60317;48.880;-0.862;2023-05-23T02:58:17;101002.47;;;20.39;47.42
72359;BME280;60317;48.880;-0.862;2023-05-23T03:00:44;100996.84;;;20.42;47.33
72359;BME280;60317;48.880;-0.862;2023-05-23T03:03:10;101001.13;;;20.45;47.39
72359;BME280;60317;48.880;-0.862;2023-05-23T03:05:37;101003.94;;;20.43;47.30
72359;BME280;60317;48.880;-0.862;2023-05-23T03:08:03;100997.81;;;20.41;47.12
72359;BME280;60317;48.880;-0.862;2023-05-23T03:10:30;101001.50;;;20.40;47.14
72359;BME280;60317;48.880;-0.862;2023-05-23T03:12:58;101002.34;;;20.41;46.89
72359;BME280;60317;48.880;-0.862;2023-05-23T03:15:24;101006.13;;;20.38;46.93
72359;BME280;60317;48.880;-0.862;2023-05-23T03:17:50;101014.16;;;20.38;46.97
72359;BME280;60317;48.880;-0.862;2023-05-23T03:20:17;101016.63;;;20.41;47.02
72359;BME280;60317;48.880;-0.862;2023-05-23T03:22:44;101014.78;;;20.42;46.88
72359;BME280;60317;48.880;-0.862;2023-05-23T03:25:10;101010.88;;;20.46;46.89
72359;BME280;60317;48.880;-0.862;2023-05-23T03:27:37;101004.66;;;20.45;46.78
72359;BME280;60317;48.880;-0.862;2023-05-23T03:30:05;101008.31;;;20.44;46.93
72359;BME280;60317;48.880;-0.862;2023-05-23T03:32:32;100993.91;;;20.34;47.06
72359;BME280;60317;48.880;-0.862;2023-05-23T03:34:58;101001.22;;;20.32;47.05
72359;BME280;60317;48.880;-0.862;2023-05-23T03:37:25;100996.34;;;20.37;47.00
72359;BME280;60317;48.880;-0.862;2023-05-23T03:39:51;101006.25;;;20.37;47.10
72359;BME280;60317;48.880;-0.862;2023-05-23T03:42:18;101009.66;;;20.39;47.09
72359;BME280;60317;48.880;-0.862;2023-05-23T03:44:44;101009.53;;;20.40;47.06
72359;BME280;60317;48.880;-0.862;2023-05-23T03:47:12;100999.78;;;20.39;47.15
72359;BME280;60317;48.880;-0.862;2023-05-23T03:49:39;101000.41;;;20.43;47.01
72359;BME280;60317;48.880;-0.862;2023-05-23T03:52:05;100999.28;;;20.34;47.23
72359;BME280;60317;48.880;-0.862;2023-05-23T03:54:32;101003.28;;;20.29;47.40
72359;BME280;60317;48.880;-0.862;2023-05-23T03:56:58;101000.38;;;20.32;47.39
72359;BME280;60317;48.880;-0.862;2023-05-23T03:59:25;100997.34;;;20.36;47.16
72359;BME280;60317;48.880;-0.862;2023-05-23T04:01:51;100995.50;;;20.37;47.23
72359;BME280;60317;48.880;-0.862;2023-05-23T04:04:19;100995.28;;;20.40;47.27
72359;BME280;60317;48.880;-0.862;2023-05-23T04:06:46;100988.53;;;20.45;47.13
72359;BME280;60317;48.880;-0.862;2023-05-23T04:09:12;100990.50;;;20.43;47.04
72359;BME280;60317;48.880;-0.862;2023-05-23T04:11:39;100991.00;;;20.37;47.37
72359;BME280;60317;48.880;-0.862;2023-05-23T04:14:05;100993.91;;;20.34;47.26
72359;BME280;60317;48.880;-0.862;2023-05-23T04:16:32;100989.28;;;20.36;47.34
72359;BME280;60317;48.880;-0.862;2023-05-23T04:18:59;100993.78;;;20.36;47.46
72359;BME280;60317;48.880;-0.862;2023-05-23T04:21:26;100989.28;;;20.36;47.41
72359;BME280;60317;48.880;-0.862;2023-05-23T04:23:53;100990.25;;;20.35;47.41
72359;BME280;60317;48.880;-0.862;2023-05-23T04:26:19;101000.13;;;20.35;47.39
72359;BME280;60317;48.880;-0.862;2023-05-23T04:28:46;100995.84;;;20.32;47.25
72359;BME280;60317;48.880;-0.862;2023-05-23T04:31:12;101001.19;;;20.21;47.58
72359;BME280;60317;48.880;-0.862;2023-05-23T04:33:39;101001.94;;;20.23;47.47
72359;BME280;60317;48.880;-0.862;2023-05-23T04:36:06;101009.03;;;20.24;47.41
72359;BME280;60317;48.880;-0.862;2023-05-23T04:38:34;101007.19;;;20.24;47.42
72359;BME280;60317;48.880;-0.862;2023-05-23T04:41:01;101014.38;;;20.24;47.29
72359;BME280;60317;48.880;-0.862;2023-05-23T04:43:27;101006.09;;;20.27;47.30
72359;BME280;60317;48.880;-0.862;2023-05-23T04:45:54;101014.28;;;20.25;47.37
72359;BME280;60317;48.880;-0.862;2023-05-23T04:48:20;101007.09;;;20.26;47.07
72359;BME280;60317;48.880;-0.862;2023-05-23T04:50:47;101012.16;;;20.18;47.39
72359;BME280;60317;48.880;-0.862;2023-05-23T04:53:13;101023.03;;;20.16;47.40
72359;BME280;60317;48.880;-0.862;2023-05-23T04:55:41;101021.94;;;20.19;47.22
72359;BME280;60317;48.880;-0.862;2023-05-23T04:58:08;101024.63;;;20.19;47.13
72359;BME280;60317;48.880;-0.862;2023-05-23T05:00:34;101024.50;;;20.20;47.50
72359;BME280;60317;48.880;-0.862;2023-05-23T05:03:01;101021.81;;;20.20;47.24
72359;BME280;60317;48.880;-0.862;2023-05-23T05:05:28;101019.13;;;20.20;47.35
72359;BME280;60317;48.880;-0.862;2023-05-23T05:07:54;101028.53;;;20.15;48.68
72359;BME280;60317;48.880;-0.862;2023-05-23T05:10:20;101033.84;;;20.03;48.83
72359;BME280;60317;48.880;-0.862;2023-05-23T05:12:48;101042.84;;;19.91;50.29
72359;BME280;60317;48.880;-0.862;2023-05-23T05:15:15;101037.50;;;20.02;49.42
72359;BME280;60317;48.880;-0.862;2023-05-23T05:17:42;101043.66;;;20.16;48.68
72359;BME280;60317;48.880;-0.862;2023-05-23T05:20:09;101047.34;;;20.26;48.45
72359;BME280;60317;48.880;-0.862;2023-05-23T05:22:36;101050.50;;;20.31;48.32
72359;BME280;60317;48.880;-0.862;2023-05-23T05:25:03;101060.16;;;20.34;48.14
72359;BME280;60317;48.880;-0.862;2023-05-23T05:27:30;101055.53;;;20.36;48.13
72359;BME280;60317;48.880;-0.862;2023-05-23T05:29:58;101061.53;;;20.39;48.29
72359;BME280;60317;48.880;-0.862;2023-05-23T05:32:25;101055.28;;;20.27;48.47
72359;BME280;60317;48.880;-0.862;2023-05-23T05:34:51;101061.22;;;20.20;48.71
72359;BME280;60317;48.880;-0.862;2023-05-23T05:37:18;101067.44;;;20.20;48.69
72359;BME280;60317;48.880;-0.862;2023-05-23T05:39:44;101068.53;;;20.18;48.97
72359;BME280;60317;48.880;-0.862;2023-05-23T05:42:11;101071.84;;;20.21;48.86
72359;BME280;60317;48.880;-0.862;2023-05-23T05:44:37;101070.88;;;20.22;49.05
72359;BME280;60317;48.880;-0.862;2023-05-23T05:47:05;101069.06;;;20.23;48.98
72359;BME280;60317;48.880;-0.862;2023-05-23T05:49:31;101072.47;;;20.25;49.12
72359;BME280;60317;48.880;-0.862;2023-05-23T05:51:58;101076.59;;;20.18;49.18
72359;BME280;60317;48.880;-0.862;2023-05-23T05:54:24;101067.28;;;20.11;49.32
72359;BME280;60317;48.880;-0.862;2023-05-23T05:56:51;101066.44;;;20.10;49.25
72359;BME280;60317;48.880;-0.862;2023-05-23T05:59:18;101069.88;;;20.12;49.29
72359;BME280;60317;48.880;-0.862;2023-05-23T06:01:44;101073.28;;;20.14;49.47
72359;BME280;60317;48.880;-0.862;2023-05-23T06:04:13;101073.19;;;20.16;49.32
72359;BME280;60317;48.880;-0.862;2023-05-23T06:06:40;101085.38;;;20.20;49.42
72359;BME280;60317;48.880;-0.862;2023-05-23T06:09:06;101084.53;;;20.19;49.43
72359;BME280;60317;48.880;-0.862;2023-05-23T06:11:33;101087.31;;;20.18;49.63
72359;BME280;60317;48.880;-0.862;2023-05-23T06:14:00;101089.06;;;20.19;49.80
72359;BME280;60317;48.880;-0.862;2023-05-23T06:16:27;101087.81;;;20.12;49.91
72359;BME280;60317;48.880;-0.862;2023-05-23T06:18:53;101091.13;;;20.15;49.92
72359;BME280;60317;48.880;-0.862;2023-05-23T06:21:21;101090.00;;;20.18;49.87
72359;BME280;60317;48.880;-0.862;2023-05-23T06:23:48;101107.63;;;20.22;50.05
72359;BME280;60317;48.880;-0.862;2023-05-23T06:26:14;101103.09;;;20.22;49.96
72359;BME280;60317;48.880;-0.862;2023-05-23T06:28:41;101107.47;;;20.23;49.93
72359;BME280;60317;48.880;-0.862;2023-05-23T06:31:08;101106.63;;;20.23;50.03
72359;BME280;60317;48.880;-0.862;2023-05-23T06:33:34;101106.72;;;20.21;50.11
72359;BME280;60317;48.880;-0.862;2023-05-23T06:36:01;101107.09;;;20.17;50.45
72359;BME280;60317;48.880;-0.862;2023-05-23T06:38:30;101115.50;;;20.12;50.54
72359;BME280;60317;48.880;-0.862;2023-05-23T06:40:57;101110.84;;;20.14;50.25
72359;BME280;60317;48.880;-0.862;2023-05-23T06:43:24;101108.78;;;20.18;50.37
72359;BME280;60317;48.880;-0.862;2023-05-23T06:45:50;101109.66;;;20.18;50.40
72359;BME280;60317;48.880;-0.862;2023-05-23T06:48:17;101106.72;;;20.21;50.31
72359;BME280;60317;48.880;-0.862;2023-05-23T06:50:43;101112.22;;;20.20;50.39
72359;BME280;60317;48.880;-0.862;2023-05-23T06:53:10;101118.56;;;20.19;50.35
72359;BME280;60317;48.880;-0.862;2023-05-23T06:55:38;101126.41;;;20.22;50.21
72359;BME280;60317;48.880;-0.862;2023-05-23T06:58:05;101122.84;;;20.21;50.20
72359;BME280;60317;48.880;-0.862;2023-05-23T07:00:31;101127.09;;;20.13;50.33
72359;BME280;60317;48.880;-0.862;2023-05-23T07:02:58;101127.94;;;20.13;50.27
72359;BME280;60317;48.880;-0.862;2023-05-23T07:05:25;101122.34;;;20.16;50.07
72359;BME280;60317;48.880;-0.862;2023-05-23T07:07:51;101131.00;;;20.20;50.00
72359;BME280;60317;48.880;-0.862;2023-05-23T07:10:18;101136.16;;;20.23;49.98
72359;BME280;60317;48.880;-0.862;2023-05-23T07:12:46;101131.00;;;20.20;49.94
72359;BME280;60317;48.880;-0.862;2023-05-23T07:15:12;101136.50;;;20.18;49.80
72359;BME280;60317;48.880;-0.862;2023-05-23T07:17:39;101136.25;;;20.21;49.74
72359;BME280;60317;48.880;-0.862;2023-05-23T07:20:06;101138.84;;;20.23;49.67
72359;BME280;60317;48.880;-0.862;2023-05-23T07:22:33;101133.69;;;20.20;49.77
72359;BME280;60317;48.880;-0.862;2023-05-23T07:25:00;101139.19;;;20.18;49.86
72359;BME280;60317;48.880;-0.862;2023-05-23T07:27:26;101144.22;;;20.23;49.50
72359;BME280;60317;48.880;-0.862;2023-05-23T07:29:54;101142.25;;;20.25;49.44
72359;BME280;60317;48.880;-0.862;2023-05-23T07:32:20;101146.75;;;20.24;49.43
72359;BME280;60317;48.880;-0.862;2023-05-23T07:34:47;101141.28;;;20.26;49.58
72359;BME280;60317;48.880;-0.862;2023-05-23T07:37:13;101140.91;;;20.19;50.01
72359;BME280;60317;48.880;-0.862;2023-05-23T07:39:40;101141.47;;;20.12;50.59
72359;BME280;60317;48.880;-0.862;2023-05-23T07:42:07;101146.31;;;20.07;50.88
72359;BME280;60317;48.880;-0.862;2023-05-23T07:44:33;101147.03;;;19.97;50.62
72359;BME280;60317;48.880;-0.862;2023-05-23T07:47:01;101147.97;;;19.96;50.89
72359;BME280;60317;48.880;-0.862;2023-05-23T07:49:28;101143.59;;;19.95;50.98
72359;BME280;60317;48.880;-0.862;2023-05-23T07:51:54;101147.13;;;19.96;51.07
72359;BME280;60317;48.880;-0.862;2023-05-23T07:54:21;101144.03;;;19.89;51.20
72359;BME280;60317;48.880;-0.862;2023-05-23T07:56:47;101148.53;;;19.89;51.20
72359;BME280;60317;48.880;-0.862;2023-05-23T07:59:14;101151.44;;;19.86;51.26
72359;BME280;60317;48.880;-0.862;2023-05-23T08:01:40;101140.84;;;19.84;51.20
72359;BME280;60317;48.880;-0.862;2023-05-23T08:04:08;101142.47;;;19.87;51.16
72359;BME280;60317;48.880;-0.862;2023-05-23T08:06:35;101143.53;;;19.84;51.25
72359;BME280;60317;48.880;-0.862;2023-05-23T08:09:03;101142.03;;;19.80;51.49
72359;BME280;60317;48.880;-0.862;2023-05-23T08:11:30;101138.38;;;19.81;51.23
72359;BME280;60317;48.880;-0.862;2023-05-23T08:13:56;101139.22;;;19.82;51.34
72359;BME280;60317;48.880;-0.862;2023-05-23T08:16:25;101144.72;;;19.80;51.43
72359;BME280;60317;48.880;-0.862;2023-05-23T08:18:52;101145.00;;;19.88;51.36
72359;BME280;60317;48.880;-0.862;2023-05-23T08:21:20;101151.19;;;20.01;51.01
72359;BME280;60317;48.880;-0.862;2023-05-23T08:23:46;101150.84;;;20.06;50.72
72359;BME280;60317;48.880;-0.862;2023-05-23T08:26:13;101153.53;;;20.06;50.84
72359;BME280;60317;48.880;-0.862;2023-05-23T08:28:39;101144.25;;;20.10;50.73
72359;BME280;60317;48.880;-0.862;2023-05-23T08:31:06;101154.03;;;20.11;50.72
72359;BME280;60317;48.880;-0.862;2023-05-23T08:33:32;101150.06;;;20.04;50.97
72359;BME280;60317;48.880;-0.862;2023-05-23T08:35:59;101142.28;;;20.01;51.30
72359;BME280;60317;48.880;-0.862;2023-05-23T08:38:27;101147.97;;;19.96;51.76
72359;BME280;60317;48.880;-0.862;2023-05-23T08:40:55;101148.94;;;19.95;51.94
72359;BME280;60317;48.880;-0.862;2023-05-23T08:43:21;101155.16;;;19.96;51.98
72359;BME280;60317;48.880;-0.862;2023-05-23T08:45:50;101152.84;;;19.91;52.21
72359;BME280;60317;48.880;-0.862;2023-05-23T08:48:18;101153.81;;;19.90;52.48
72359;BME280;60317;48.880;-0.862;2023-05-23T08:50:46;101153.81;;;19.90;52.49
72359;BME280;60317;48.880;-0.862;2023-05-23T08:53:14;101152.84;;;19.91;52.52
72359;BME280;60317;48.880;-0.862;2023-05-23T08:55:42;101152.94;;;19.90;52.56
72359;BME280;60317;48.880;-0.862;2023-05-23T08:58:09;101151.78;;;19.81;53.02
72359;BME280;60317;48.880;-0.862;2023-05-23T09:00:36;101144.38;;;19.85;52.59
72359;BME280;60317;48.880;-0.862;2023-05-23T09:03:03;101155.34;;;19.82;52.78
72359;BME280;60317;48.880;-0.862;2023-05-23T09:05:30;101159.63;;;19.84;52.63
72359;BME280;60317;48.880;-0.862;2023-05-23T09:07:57;101151.22;;;19.89;52.43
72359;BME280;60317;48.880;-0.862;2023-05-23T09:10:24;101142.47;;;19.87;52.35
72359;BME280;60317;48.880;-0.862;2023-05-23T09:12:52;101150.72;;;19.84;52.46
72359;BME280;60317;48.880;-0.862;2023-05-23T09:15:18;101151.44;;;19.86;52.35
72359;BME280;60317;48.880;-0.862;2023-05-23T09:17:45;101157.91;;;19.83;52.54
72359;BME280;60317;48.880;-0.862;2023-05-23T09:20:13;101153.28;;;19.85;52.63
72359;BME280;60317;48.880;-0.862;2023-05-23T09:22:40;101157.91;;;19.83;52.58
72359;BME280;60317;48.880;-0.862;2023-05-23T09:25:11;101162.41;;;19.83;52.87
72359;BME280;60317;48.880;-0.862;2023-05-23T09:27:37;101159.28;;;19.89;52.37
72359;BME280;60317;48.880;-0.862;2023-05-23T09:30:06;101145.00;;;19.88;52.66
72359;BME280;60317;48.880;-0.862;2023-05-23T09:32:33;101152.94;;;19.90;52.72
72359;BME280;60317;48.880;-0.862;2023-05-23T09:35:01;101154.97;;;19.86;53.25
72359;BME280;60317;48.880;-0.862;2023-05-23T09:37:29;101158.88;;;19.82;53.36
72359;BME280;60317;48.880;-0.862;2023-05-23T09:39:57;101147.28;;;19.82;53.36
72359;BME280;60317;48.880;-0.862;2023-05-23T09:42:24;101147.91;;;19.85;53.19
72359;BME280;60317;48.880;-0.862;2023-05-23T09:44:52;101148.91;;;19.84;53.41
72359;BME280;60317;48.880;-0.862;2023-05-23T09:47:20;101148.03;;;19.84;53.57
72359;BME280;60317;48.880;-0.862;2023-05-23T09:49:47;101156.19;;;19.82;52.78
72359;BME280;60317;48.880;-0.862;2023-05-23T09:52:13;101150.72;;;19.84;52.74
72359;BME280;60317;48.880;-0.862;2023-05-23T09:54:40;101152.31;;;19.86;53.04
72359;BME280;60317;48.880;-0.862;2023-05-23T09:57:09;101158.88;;;19.82;53.05
72359;BME280;60317;48.880;-0.862;2023-05-23T09:59:38;101163.78;;;19.88;52.54
72359;BME280;60317;48.880;-0.862;2023-05-23T10:02:06;101154.75;;;19.89;52.89
72359;BME280;60317;48.880;-0.862;2023-05-23T10:04:36;101158.28;;;19.90;52.85
72359;BME280;60317;48.880;-0.862;2023-05-23T10:07:09;101151.63;;;19.95;52.50
72359;BME280;60317;48.880;-0.862;2023-05-23T10:09:38;101152.94;;;19.90;52.35
72359;BME280;60317;48.880;-0.862;2023-05-23T10:12:33;101157.16;;;19.81;52.95
72359;BME280;60317;48.880;-0.862;2023-05-23T10:15:03;101156.63;;;19.76;52.73
72359;BME280;60317;48.880;-0.862;2023-05-23T10:17:36;101141.72;;;19.72;52.44
72359;BME280;60317;48.880;-0.862;2023-05-23T10:20:09;101147.00;;;19.73;52.60
72359;BME280;60317;48.880;-0.862;2023-05-23T10:22:36;101156.88;;;19.73;52.82
72359;BME280;60317;48.880;-0.862;2023-05-23T10:25:03;101162.25;;;19.73;52.84
72359;BME280;60317;48.880;-0.862;2023-05-23T10:27:30;101153.44;;;19.71;52.98
72359;BME280;60317;48.880;-0.862;2023-05-23T10:29:58;101156.13;;;19.71;52.43
72359;BME280;60317;48.880;-0.862;2023-05-23T10:32:25;101150.94;;;19.81;51.71
72359;BME280;60317;48.880;-0.862;2023-05-23T10:34:57;101150.19;;;19.78;51.79
72359;BME280;60317;48.880;-0.862;2023-05-23T10:37:35;101155.34;;;19.82;51.50
72359;BME280;60317;48.880;-0.862;2023-05-23T10:40:10;101157.91;;;19.83;51.68
72359;BME280;60317;48.880;-0.862;2023-05-23T10:42:46;101146.00;;;19.87;51.28
72359;BME280;60317;48.880;-0.862;2023-05-23T10:45:17;101152.44;;;19.85;50.88
72359;BME280;60317;48.880;-0.862;2023-05-23T10:47:45;101157.16;;;19.81;51.20
72359;BME280;60317;48.880;-0.862;2023-05-23T10:50:12;101151.78;;;19.81;51.36
72359;BME280;60317;48.880;-0.862;2023-05-23T10:52:41;101150.72;;;19.84;51.19
72359;BME280;60317;48.880;-0.862;2023-05-23T10:55:12;101145.44;;;19.82;51.05
72359;BME280;60317;48.880;-0.862;2023-05-23T10:57:39;101156.31;;;19.81;50.92
72359;BME280;60317;48.880;-0.862;2023-05-23T11:00:11;101148.91;;;19.84;50.46
72359;BME280;60317;48.880;-0.862;2023-05-23T11:02:46;101148.91;;;19.84;50.58
72359;BME280;60317;48.880;-0.862;2023-05-23T11:05:20;101146.22;;;19.84;50.65
72359;BME280;60317;48.880;-0.862;2023-05-23T11:08:05;101156.72;;;19.87;50.82
72359;BME280;60317;48.880;-0.862;2023-05-23T11:10:32;101148.66;;;19.87;50.75
72359;BME280;60317;48.880;-0.862;2023-05-23T11:13:05;101139.19;;;19.94;50.26
72359;BME280;60317;48.880;-0.862;2023-05-23T11:15:41;101139.06;;;19.96;50.50
72359;BME280;60317;48.880;-0.862;2023-05-23T11:18:07;101134.06;;;19.91;50.67
72359;BME280;60317;48.880;-0.862;2023-05-23T11:20:36;101141.34;;;19.89;50.12
72359;BME280;60317;48.880;-0.862;2023-05-23T11:23:07;101140.06;;;19.95;49.90
72359;BME280;60317;48.880;-0.862;2023-05-23T11:25:41;101131.88;;;19.96;49.94
72359;BME280;60317;48.880;-0.862;2023-05-23T11:28:09;101132.41;;;20.01;49.18
72359;BME280;60317;48.880;-0.862;2023-05-23T11:30:36;101140.31;;;20.03;50.03
72359;BME280;60317;48.880;-0.862;2023-05-23T11:33:06;101152.84;;;20.15;49.36
72359;BME280;60317;48.880;-0.862;2023-05-23T11:35:33;101135.63;;;20.18;49.60
72359;BME280;60317;48.880;-0.862;2023-05-23T11:38:01;101140.38;;;20.14;49.33
72359;BME280;60317;48.880;-0.862;2023-05-23T11:40:30;101139.81;;;20.22;49.47
72359;BME280;60317;48.880;-0.862;2023-05-23T11:42:58;101132.00;;;20.19;49.49
72359;BME280;60317;48.880;-0.862;2023-05-23T11:45:25;101133.47;;;20.23;49.33
72359;BME280;60317;48.880;-0.862;2023-05-23T11:47:52;101136.88;;;20.25;49.40
72359;BME280;60317;48.880;-0.862;2023-05-23T11:50:19;101130.03;;;20.21;49.34
72359;BME280;60317;48.880;-0.862;2023-05-23T11:52:46;101131.22;;;20.41;48.81
72359;BME280;60317;48.880;-0.862;2023-05-23T11:55:13;101135.00;;;20.49;48.71
72359;BME280;60317;48.880;-0.862;2023-05-23T11:57:41;101134.34;;;20.59;48.49
72359;BME280;60317;48.880;-0.862;2023-05-23T12:00:09;101135.59;;;20.66;48.30
72359;BME280;60317;48.880;-0.862;2023-05-23T12:02:37;101142.19;;;20.73;48.14
72359;BME280;60317;48.880;-0.862;2023-05-23T12:05:07;101149.53;;;20.71;48.17
72359;BME280;60317;48.880;-0.862;2023-05-23T12:07:33;101137.78;;;20.61;48.00
72359;BME280;60317;48.880;-0.862;2023-05-23T12:10:00;101136.44;;;20.66;47.59
72359;BME280;60317;48.880;-0.862;2023-05-23T12:12:27;101141.72;;;20.68;47.19
72359;BME280;60317;48.880;-0.862;2023-05-23T12:14:57;101147.34;;;20.76;47.12
72359;BME280;60317;48.880;-0.862;2023-05-23T12:17:24;101130.69;;;20.60;48.36
72359;BME280;60317;48.880;-0.862;2023-05-23T12:19:51;101133.38;;;20.60;47.64
72359;BME280;60317;48.880;-0.862;2023-05-23T12:22:21;101139.63;;;20.71;47.62
72359;BME280;60317;48.880;-0.862;2023-05-23T12:24:52;101143.06;;;20.85;47.20
72359;BME280;60317;48.880;-0.862;2023-05-23T12:27:19;101135.88;;;20.96;47.18
72359;BME280;60317;48.880;-0.862;2023-05-23T12:29:49;101136.38;;;21.02;46.56
72359;BME280;60317;48.880;-0.862;2023-05-23T12:32:17;101132.72;;;21.03;46.81
72359;BME280;60317;48.880;-0.862;2023-05-23T12:34:44;101147.50;;;20.97;47.37
72359;BME280;60317;48.880;-0.862;2023-05-23T12:37:12;101144.19;;;21.05;47.17
72359;BME280;60317;48.880;-0.862;2023-05-23T12:39:46;101153.25;;;21.15;46.83
72359;BME280;60317;48.880;-0.862;2023-05-23T12:42:13;101152.03;;;21.19;46.80